Terminal Aerodrome Forecast
Issued by NWS

Home | Current Version | Previous Version | Text Only | Print | Product List | Glossary On
Versions: 1 2 3 4 5 6 7 8 9 10 11 12 13 14 15 16
418
FTAK31 PAJN 141126
TAFASI
TAF
PASI 141126Z 1412/1512 14007KT P6SM -SHRA OVC030
     FM150000 28005KT P6SM -SHRA SCT015 OVC030
     FM150300 31007KT 5SM -SHRA BR BKN015 OVC025=

USA.gov is the U.S. government's official web portal to all federal, state and local government web resources and services.